createdAt,value
2023-04-12T00:01:04.594Z,0.43
2023-04-12T00:03:34.403Z,0.35
2023-04-12T00:06:03.533Z,0.47
2023-04-12T00:08:33.305Z,0.75
2023-04-12T00:11:01.354Z,0.65
2023-04-12T00:13:28.921Z,0.77
2023-04-12T00:15:55.726Z,0.73
2023-04-12T00:18:25.643Z,1.00
2023-04-12T00:20:53.318Z,0.77
2023-04-12T00:23:20.750Z,1.10
2023-04-12T00:25:48.009Z,1.23
2023-04-12T00:28:16.028Z,0.88
2023-04-12T00:30:43.237Z,0.32
2023-04-12T00:33:10.150Z,0.93
2023-04-12T00:35:37.039Z,0.50
2023-04-12T00:38:06.330Z,0.55
2023-04-12T00:40:33.282Z,0.50
2023-04-12T00:43:00.824Z,0.50
2023-04-12T00:45:27.696Z,0.43
2023-04-12T00:47:56.348Z,0.50
2023-04-12T00:50:23.456Z,0.60
2023-04-12T00:52:52.147Z,0.52
2023-04-12T00:55:19.486Z,0.38
2023-04-12T00:57:46.932Z,0.17
2023-04-12T01:00:14.095Z,0.40
2023-04-12T01:02:47.172Z,0.20
2023-04-12T01:05:21.953Z,0.20
2023-04-12T01:08:44.129Z,0.63
2023-04-12T01:11:26.089Z,0.50
2023-04-12T01:14:19.743Z,0.30
2023-04-12T01:16:55.772Z,0.20
2023-04-12T01:19:54.123Z,0.40
2023-04-12T01:23:07.640Z,0.32
2023-04-12T01:26:00.451Z,0.47
2023-04-12T01:28:32.700Z,0.32
2023-04-12T01:31:03.216Z,0.50
2023-04-12T01:33:31.688Z,0.40
2023-04-12T01:36:04.540Z,0.75
2023-04-12T01:38:33.593Z,0.30
2023-04-12T01:41:00.362Z,0.65
2023-04-12T01:43:27.261Z,0.50
2023-04-12T01:45:54.184Z,0.63
2023-04-12T01:48:21.155Z,0.20
2023-04-12T01:51:00.851Z,0.65
2023-04-12T01:53:49.369Z,0.32
2023-04-12T01:56:19.183Z,0.50
2023-04-12T01:58:48.862Z,0.30
2023-04-12T02:01:18.105Z,0.88
2023-04-12T02:03:46.076Z,0.40
2023-04-12T02:06:13.877Z,0.38
2023-04-12T02:08:40.680Z,0.30
2023-04-12T02:11:11.709Z,0.57
2023-04-12T02:13:38.692Z,0.28
2023-04-12T02:16:07.959Z,0.47
2023-04-12T02:18:38.000Z,0.50
2023-04-12T02:21:05.088Z,0.30
2023-04-12T02:23:31.938Z,0.63
2023-04-12T02:25:58.783Z,0.47
2023-04-12T02:28:25.592Z,0.30
2023-04-12T02:30:54.059Z,0.30
2023-04-12T02:33:28.293Z,0.40
2023-04-12T02:35:57.373Z,0.30
2023-04-12T02:38:24.456Z,0.70
2023-04-12T02:40:51.446Z,0.20
2023-04-12T02:43:18.198Z,0.43
2023-04-12T02:45:45.315Z,0.30
2023-04-12T02:48:12.407Z,0.22
2023-04-12T02:50:39.546Z,0.30
2023-04-12T02:53:06.581Z,0.55
2023-04-12T02:55:33.663Z,0.43
2023-04-12T02:58:00.841Z,0.20
2023-04-12T03:00:27.986Z,0.43
2023-04-12T03:02:55.500Z,0.30
2023-04-12T03:05:22.653Z,0.22
2023-04-12T03:07:49.464Z,0.20
2023-04-12T03:10:16.283Z,0.80
2023-04-12T03:12:43.097Z,0.60
2023-04-12T03:15:10.344Z,0.68
2023-04-12T03:17:37.354Z,0.47
2023-04-12T03:20:10.646Z,0.77
2023-04-12T03:22:38.377Z,0.60
2023-04-12T03:25:05.817Z,0.47
2023-04-12T03:27:32.950Z,0.50
2023-04-12T03:29:59.894Z,0.90
2023-04-12T03:32:26.976Z,0.82
2023-04-12T03:34:53.819Z,0.82
2023-04-12T03:37:20.759Z,1.00
2023-04-12T03:39:48.489Z,1.00
2023-04-12T03:42:25.795Z,1.30
2023-04-12T03:44:57.228Z,0.73
2023-04-12T03:47:24.171Z,0.90
2023-04-12T03:50:06.102Z,0.95
2023-04-12T03:52:37.754Z,0.75
2023-04-12T03:55:06.279Z,0.65
2023-04-12T03:57:33.010Z,0.80
2023-04-12T04:00:00.233Z,0.60
2023-04-12T04:02:27.777Z,0.98
2023-04-12T04:04:54.838Z,0.75
2023-04-12T04:07:22.450Z,0.55
2023-04-12T04:09:50.121Z,0.80
2023-04-12T04:12:17.207Z,0.30
2023-04-12T04:14:44.392Z,0.77
2023-04-12T04:17:11.359Z,0.63
2023-04-12T04:19:38.627Z,0.43
2023-04-12T04:22:05.487Z,0.28
2023-04-12T04:24:32.243Z,0.20
2023-04-12T04:26:59.413Z,0.32
2023-04-12T04:29:27.145Z,0.63
2023-04-12T04:31:54.431Z,0.57
2023-04-12T04:34:22.344Z,0.73
2023-04-12T04:36:49.216Z,0.50
2023-04-12T04:39:16.047Z,0.13
2023-04-12T04:41:42.921Z,0.65
2023-04-12T04:44:09.740Z,0.40
2023-04-12T04:46:39.764Z,0.40
2023-04-12T04:49:07.164Z,0.68
2023-04-12T04:51:33.981Z,0.70
2023-04-12T04:54:02.200Z,0.63
2023-04-12T04:56:29.068Z,0.47
2023-04-12T04:58:57.256Z,0.75
2023-04-12T05:01:28.777Z,1.13
2023-04-12T05:03:56.226Z,0.93
2023-04-12T05:06:23.557Z,0.65
2023-04-12T05:08:50.329Z,0.85
2023-04-12T05:11:17.257Z,0.70
2023-04-12T05:13:44.185Z,0.85
2023-04-12T05:16:12.029Z,0.38
2023-04-12T05:18:39.085Z,0.55
2023-04-12T05:21:06.155Z,0.50
2023-04-12T05:23:37.653Z,1.08
2023-04-12T05:26:05.052Z,0.88
2023-04-12T05:28:31.968Z,0.38
2023-04-12T05:30:59.239Z,0.50
2023-04-12T05:33:26.431Z,0.50
2023-04-12T05:35:53.264Z,0.68
2023-04-12T05:38:20.107Z,0.60
2023-04-12T05:40:50.164Z,0.70
2023-04-12T05:43:17.832Z,0.50
2023-04-12T05:45:44.801Z,1.00
2023-04-12T05:48:11.733Z,0.85
2023-04-12T05:50:38.566Z,0.90
2023-04-12T05:53:05.381Z,0.50
2023-04-12T05:55:32.220Z,0.82
2023-04-12T05:57:58.994Z,0.60
2023-04-12T06:00:26.418Z,0.40
2023-04-12T06:02:53.535Z,0.35
2023-04-12T06:05:20.734Z,0.95
2023-04-12T06:07:48.292Z,0.85
2023-04-12T06:10:17.370Z,0.85
2023-04-12T06:12:45.129Z,0.47
2023-04-12T06:15:12.246Z,0.60
2023-04-12T06:17:39.255Z,0.90
2023-04-12T06:20:10.170Z,0.55
2023-04-12T06:22:40.164Z,0.90
2023-04-12T06:25:08.251Z,0.98
2023-04-12T06:27:35.177Z,0.65
2023-04-12T06:30:02.006Z,0.95
2023-04-12T06:32:28.817Z,0.98
2023-04-12T06:34:55.587Z,0.73
2023-04-12T06:37:22.276Z,0.25
2023-04-12T06:39:49.127Z,0.47
2023-04-12T06:42:16.305Z,0.93
2023-04-12T06:44:43.060Z,0.43
2023-04-12T06:47:10.072Z,0.80
2023-04-12T06:49:36.977Z,0.75
2023-04-12T06:52:03.899Z,0.57
2023-04-12T06:54:31.134Z,0.85
2023-04-12T06:56:58.039Z,0.60
2023-04-12T06:59:24.819Z,0.40
2023-04-12T07:01:52.025Z,0.30
2023-04-12T07:04:19.093Z,0.45
2023-04-12T07:06:46.236Z,0.50
2023-04-12T07:09:13.100Z,0.68
2023-04-12T07:11:39.919Z,0.20
2023-04-12T07:14:06.878Z,0.88
2023-04-12T07:16:34.153Z,0.20
2023-04-12T07:19:01.257Z,0.60
2023-04-12T07:21:28.463Z,0.20
2023-04-12T07:23:56.197Z,0.20
2023-04-12T07:26:23.528Z,0.55
2023-04-12T07:28:50.733Z,0.38
2023-04-12T07:31:17.679Z,0.63
2023-04-12T07:33:44.939Z,0.25
2023-04-12T07:36:12.332Z,0.35
2023-04-12T07:38:39.254Z,0.30
2023-04-12T07:41:06.154Z,0.55
2023-04-12T07:43:33.040Z,0.50
2023-04-12T07:45:59.989Z,0.28
2023-04-12T07:48:27.142Z,0.80
2023-04-12T07:50:53.966Z,0.40
2023-04-12T07:53:26.650Z,0.82
2023-04-12T07:55:54.631Z,0.50
2023-04-12T07:58:22.791Z,0.90
2023-04-12T08:00:49.910Z,0.68
2023-04-12T08:03:18.526Z,0.63
2023-04-12T08:05:45.683Z,0.57
2023-04-12T08:08:12.753Z,0.50
2023-04-12T08:10:40.419Z,1.00
2023-04-12T08:13:07.648Z,0.90
2023-04-12T08:15:36.742Z,0.85
2023-04-12T08:18:04.271Z,0.85
2023-04-12T08:20:31.838Z,0.82
2023-04-12T08:22:58.918Z,0.70
2023-04-12T08:25:25.936Z,0.63
2023-04-12T08:27:52.866Z,0.98
2023-04-12T08:30:20.049Z,0.88
2023-04-12T08:32:46.905Z,1.27
2023-04-12T08:35:15.099Z,1.15
2023-04-12T08:37:42.293Z,0.50
2023-04-12T08:40:09.683Z,0.70
2023-04-12T08:42:38.022Z,0.55
2023-04-12T08:45:09.703Z,0.82
2023-04-12T08:47:43.612Z,0.93
2023-04-12T08:50:14.307Z,0.95
2023-04-12T08:52:42.977Z,0.73
2023-04-12T08:55:10.849Z,0.65
2023-04-12T08:57:41.318Z,0.20
2023-04-12T09:02:38.249Z,0.80
2023-04-12T09:05:07.119Z,0.52
2023-04-12T09:07:37.438Z,0.80
2023-04-12T09:10:05.125Z,0.25
2023-04-12T09:12:32.266Z,0.70
2023-04-12T09:15:12.827Z,0.52
2023-04-12T09:17:41.451Z,0.57
2023-04-12T09:20:17.847Z,0.22
2023-04-12T09:22:46.822Z,0.40
2023-04-12T09:25:15.262Z,0.30
2023-04-12T09:27:52.908Z,0.50
2023-04-12T09:30:21.274Z,0.60
2023-04-12T09:32:49.652Z,0.30
2023-04-12T09:35:16.735Z,0.80
2023-04-12T09:37:43.770Z,0.30
2023-04-12T09:40:11.307Z,0.30
2023-04-12T09:42:53.997Z,0.55
2023-04-12T09:45:23.958Z,0.30
2023-04-12T09:47:51.477Z,0.40
2023-04-12T09:50:26.277Z,0.70
2023-04-12T09:52:55.054Z,0.60
2023-04-12T09:55:23.998Z,0.30
2023-04-12T09:57:52.741Z,0.40
2023-04-12T10:00:22.680Z,0.30
2023-04-12T10:02:53.018Z,0.30
2023-04-12T10:05:26.683Z,0.13
2023-04-12T10:07:55.245Z,0.30
2023-04-12T10:10:23.537Z,0.20
2023-04-12T10:12:51.240Z,0.10
2023-04-12T10:15:21.097Z,0.00
2023-04-12T10:17:51.434Z,0.20
2023-04-12T10:22:51.002Z,0.30
2023-04-12T10:25:31.159Z,0.38
2023-04-12T10:28:14.136Z,0.20
2023-04-12T10:30:41.200Z,0.30
2023-04-12T10:33:12.750Z,0.52
2023-04-12T10:35:49.917Z,0.50
2023-04-12T10:38:17.568Z,0.20
2023-04-12T10:41:17.204Z,0.30
2023-04-12T10:43:46.506Z,0.30
2023-04-12T10:46:38.251Z,0.22
2023-04-12T10:49:09.965Z,0.20
2023-04-12T10:51:37.126Z,0.40
2023-04-12T10:54:18.996Z,0.40
2023-04-12T10:56:47.244Z,0.93
2023-04-12T10:59:15.362Z,0.90
2023-04-12T11:02:04.989Z,0.30
2023-04-12T11:04:32.217Z,0.30
2023-04-12T11:07:01.891Z,0.20
2023-04-12T11:09:35.065Z,0.30
2023-04-12T11:12:04.862Z,0.20
2023-04-12T11:14:52.524Z,0.25
2023-04-12T11:17:21.058Z,0.88
2023-04-12T11:19:54.432Z,0.75
2023-04-12T11:22:23.233Z,0.40
2023-04-12T11:24:52.644Z,0.70
2023-04-12T11:27:21.907Z,0.60
2023-04-12T11:29:50.858Z,0.38
2023-04-12T11:32:17.931Z,0.57
2023-04-12T11:34:47.431Z,0.32
2023-04-12T11:37:14.730Z,0.35
2023-04-12T11:39:43.692Z,0.35
2023-04-12T11:42:19.445Z,0.40
2023-04-12T11:47:21.600Z,0.88
2023-04-12T11:49:56.533Z,0.55
2023-04-12T11:52:31.469Z,0.52
2023-04-12T11:55:02.098Z,0.60
2023-04-12T11:57:29.281Z,0.60
2023-04-12T11:59:59.426Z,0.50
2023-04-12T12:02:30.364Z,0.60
2023-04-12T12:05:00.106Z,0.32
2023-04-12T12:07:27.879Z,0.57
2023-04-12T12:09:55.847Z,0.60
2023-04-12T12:12:24.075Z,0.63
2023-04-12T12:14:51.086Z,0.47
2023-04-12T12:17:17.919Z,0.70
2023-04-12T12:19:46.195Z,0.63
2023-04-12T12:22:19.798Z,0.70
2023-04-12T12:24:49.923Z,0.30
2023-04-12T12:29:51.097Z,0.30
2023-04-12T12:32:19.043Z,0.55
2023-04-12T12:34:54.306Z,0.40
2023-04-12T12:37:24.439Z,0.40
2023-04-12T12:40:15.687Z,0.52
2023-04-12T12:42:51.989Z,0.40
2023-04-12T12:45:20.683Z,0.68
2023-04-12T12:47:52.041Z,0.65
2023-04-12T12:50:25.028Z,0.55
2023-04-12T12:52:52.812Z,0.60
2023-04-12T12:55:21.402Z,0.35
2023-04-12T12:58:02.093Z,0.50
2023-04-12T13:00:33.239Z,0.50
2023-04-12T13:03:00.407Z,0.52
2023-04-12T13:05:27.503Z,0.50
2023-04-12T13:07:54.284Z,0.40
2023-04-12T13:10:21.322Z,0.38
2023-04-12T13:12:48.153Z,0.40
2023-04-12T13:15:23.010Z,0.63
2023-04-12T13:17:52.636Z,0.55
2023-04-12T13:20:19.756Z,0.50
2023-04-12T13:22:46.702Z,0.57
2023-04-12T13:25:13.486Z,0.40
2023-04-12T13:27:40.366Z,0.30
2023-04-12T13:30:08.509Z,0.77
2023-04-12T13:32:35.911Z,0.30
2023-04-12T13:35:03.671Z,0.40
2023-04-12T13:37:31.066Z,0.50
2023-04-12T13:39:57.889Z,0.32
2023-04-12T13:42:24.666Z,0.50
2023-04-12T13:44:51.470Z,0.50
2023-04-12T13:47:18.380Z,0.43
2023-04-12T13:49:45.701Z,0.52
2023-04-12T13:52:13.018Z,0.28
2023-04-12T13:54:40.846Z,0.50
2023-04-12T13:57:08.155Z,0.22
2023-04-12T13:59:35.234Z,0.73
2023-04-12T14:02:02.653Z,0.40
2023-04-12T14:04:30.867Z,0.60
2023-04-12T14:06:58.971Z,0.63
2023-04-12T14:09:27.257Z,0.60
2023-04-12T14:11:56.009Z,0.80
2023-04-12T14:14:23.921Z,0.30
2023-04-12T14:16:53.560Z,0.40
2023-04-12T14:19:21.399Z,0.38
2023-04-12T14:21:48.959Z,0.10
2023-04-12T14:24:16.860Z,0.40
2023-04-12T14:26:44.056Z,0.38
2023-04-12T14:29:11.385Z,0.30
2023-04-12T14:31:38.361Z,0.40
2023-04-12T14:34:05.906Z,0.45
2023-04-12T14:36:33.444Z,0.32
2023-04-12T14:39:01.789Z,0.32
2023-04-12T14:41:29.449Z,0.25
2023-04-12T14:43:56.738Z,0.40
2023-04-12T14:46:25.567Z,0.30
2023-04-12T14:48:52.371Z,0.50
2023-04-12T14:51:19.583Z,0.40
2023-04-12T14:53:46.622Z,0.22
2023-04-12T14:56:24.828Z,0.40
2023-04-12T14:58:54.175Z,0.22
2023-04-12T15:01:23.553Z,0.38
2023-04-12T15:03:55.156Z,0.40
2023-04-12T15:06:23.445Z,0.47
2023-04-12T15:08:55.015Z,0.93
2023-04-12T15:11:26.702Z,0.30
2023-04-12T15:13:53.975Z,0.40
2023-04-12T15:16:21.335Z,0.50
2023-04-12T15:18:51.179Z,0.30
2023-04-12T15:21:18.212Z,0.40
2023-04-12T15:23:45.086Z,0.30
2023-04-12T15:26:14.672Z,0.40
2023-04-12T15:28:41.943Z,0.47
2023-04-12T15:31:09.694Z,0.80
2023-04-12T15:33:37.491Z,0.28
2023-04-12T15:36:05.030Z,0.30
2023-04-12T15:38:32.029Z,0.17
2023-04-12T15:41:01.739Z,0.30
2023-04-12T15:43:29.025Z,0.40
2023-04-12T15:45:56.321Z,0.45
2023-04-12T15:48:25.227Z,0.20
2023-04-12T15:50:53.733Z,0.38
2023-04-12T15:53:22.699Z,0.32
2023-04-12T15:55:55.305Z,0.60
2023-04-12T15:58:23.434Z,0.68
2023-04-12T16:00:53.066Z,0.47
2023-04-12T16:03:23.307Z,0.40
2023-04-12T16:05:54.319Z,0.60
2023-04-12T16:08:22.425Z,0.40
2023-04-12T16:10:50.826Z,0.40
2023-04-12T16:13:18.420Z,0.30
2023-04-12T16:15:46.373Z,0.60
2023-04-12T16:18:13.548Z,0.30
2023-04-12T16:20:43.239Z,0.30
2023-04-12T16:23:10.020Z,0.63
2023-04-12T16:25:36.904Z,0.50
2023-04-12T16:28:03.924Z,0.52
2023-04-12T16:30:31.853Z,0.30
2023-04-12T16:32:58.765Z,0.43
2023-04-12T16:35:25.925Z,0.40
2023-04-12T16:37:52.649Z,0.28
2023-04-12T16:40:20.669Z,0.15
2023-04-12T16:42:47.464Z,0.57
2023-04-12T16:45:15.055Z,0.30
2023-04-12T16:47:42.359Z,0.30
2023-04-12T16:50:09.648Z,0.40
2023-04-12T16:52:37.763Z,0.52
2023-04-12T16:55:05.272Z,0.35
2023-04-12T16:57:32.909Z,0.60
2023-04-12T17:00:00.658Z,0.50
2023-04-12T17:02:27.899Z,0.25
2023-04-12T17:04:56.736Z,0.25
2023-04-12T17:07:27.213Z,0.40
2023-04-12T17:09:56.133Z,0.55
2023-04-12T17:12:23.149Z,0.30
2023-04-12T17:14:51.316Z,0.60
2023-04-12T17:17:20.591Z,0.50
2023-04-12T17:19:48.651Z,0.30
2023-04-12T17:22:18.151Z,0.40
2023-04-12T17:24:46.377Z,0.63
2023-04-12T17:27:13.950Z,0.70
2023-04-12T17:29:41.038Z,0.40
2023-04-12T17:32:08.142Z,0.47
2023-04-12T17:34:34.920Z,0.88
2023-04-12T17:37:01.896Z,0.68
2023-04-12T17:39:28.852Z,0.30
2023-04-12T17:41:56.033Z,0.32
2023-04-12T17:44:22.785Z,0.45
2023-04-12T17:46:49.722Z,0.68
2023-04-12T17:49:21.254Z,0.50
2023-04-12T17:51:48.199Z,0.70
2023-04-12T17:54:15.168Z,0.60
2023-04-12T17:56:42.589Z,0.40
2023-04-12T17:59:10.716Z,0.38
2023-04-12T18:01:37.825Z,0.93
2023-04-12T18:04:05.619Z,0.77
2023-04-12T18:06:33.292Z,0.55
2023-04-12T18:09:00.431Z,0.60
2023-04-12T18:11:27.604Z,0.50
2023-04-12T18:13:54.659Z,0.50
2023-04-12T18:16:22.103Z,0.30
2023-04-12T18:19:00.475Z,0.50
2023-04-12T18:21:28.989Z,0.20
2023-04-12T18:23:56.321Z,0.68
2023-04-12T18:26:23.421Z,0.45
2023-04-12T18:28:50.888Z,0.40
2023-04-12T18:31:19.225Z,0.40
2023-04-12T18:33:49.564Z,0.40
2023-04-12T18:36:16.953Z,0.45
2023-04-12T18:38:44.141Z,0.22
2023-04-12T18:41:17.600Z,0.10
2023-04-12T18:43:45.367Z,0.40
2023-04-12T18:46:17.342Z,0.50
2023-04-12T18:48:48.101Z,0.40
2023-04-12T18:51:15.095Z,0.20
2023-04-12T18:53:41.818Z,0.35
2023-04-12T18:56:12.539Z,0.50
2023-04-12T18:58:54.137Z,0.32
2023-04-12T19:03:49.675Z,0.20
2023-04-12T19:06:16.988Z,0.75
2023-04-12T19:08:43.907Z,0.32
2023-04-12T19:11:10.681Z,0.63
2023-04-12T19:13:38.299Z,0.75
2023-04-12T19:16:08.735Z,0.93
2023-04-12T19:18:35.586Z,0.60
2023-04-12T19:21:02.917Z,0.80
2023-04-12T19:23:30.852Z,0.90
2023-04-12T19:25:59.970Z,0.95
2023-04-12T19:28:27.870Z,0.60
2023-04-12T19:30:56.963Z,0.50
2023-04-12T19:33:24.810Z,1.40
2023-04-12T19:35:52.170Z,1.10
2023-04-12T19:38:21.732Z,1.15
2023-04-12T19:40:50.871Z,0.73
2023-04-12T19:43:21.107Z,1.15
2023-04-12T19:45:48.211Z,0.60
2023-04-12T19:48:16.316Z,0.73
2023-04-12T19:50:43.109Z,1.20
2023-04-12T19:53:12.201Z,0.50
2023-04-12T19:55:39.056Z,0.55
2023-04-12T19:58:06.147Z,0.70
2023-04-12T20:00:32.892Z,0.60
2023-04-12T20:02:59.787Z,0.88
2023-04-12T20:05:26.854Z,0.82
2023-04-12T20:07:56.158Z,0.35
2023-04-12T20:10:23.161Z,0.20
2023-04-12T20:12:49.926Z,1.02
2023-04-12T20:15:17.842Z,0.50
2023-04-12T20:17:45.949Z,1.60
2023-04-12T20:20:14.282Z,0.88
2023-04-12T20:22:42.444Z,1.00
2023-04-12T20:25:11.003Z,1.13
2023-04-12T20:27:39.086Z,1.52
2023-04-12T20:30:07.455Z,1.52
2023-04-12T20:32:36.082Z,1.75
2023-04-12T20:35:06.584Z,0.57
2023-04-12T20:37:33.762Z,0.80
2023-04-12T20:40:00.983Z,0.90
2023-04-12T20:42:27.865Z,0.77
2023-04-12T20:44:54.664Z,1.63
2023-04-12T20:47:22.495Z,1.42
2023-04-12T20:49:50.731Z,1.27
2023-04-12T20:52:18.743Z,1.73
2023-04-12T20:54:45.872Z,1.95
2023-04-12T20:57:14.051Z,1.45
2023-04-12T20:59:41.060Z,1.65
2023-04-12T21:02:09.603Z,1.27
2023-04-12T21:04:36.663Z,1.10
2023-04-12T21:07:03.576Z,1.08
2023-04-12T21:09:30.872Z,1.17
2023-04-12T21:11:57.953Z,1.00
2023-04-12T21:14:24.909Z,1.10
2023-04-12T21:16:52.648Z,0.63
2023-04-12T21:19:19.609Z,2.03
2023-04-12T21:21:46.563Z,0.93
2023-04-12T21:24:13.808Z,1.40
2023-04-12T21:26:42.522Z,1.63
2023-04-12T21:29:09.714Z,1.83
2023-04-12T21:31:39.218Z,1.60
2023-04-12T21:34:07.300Z,0.55
2023-04-12T21:36:34.474Z,1.50
2023-04-12T21:39:01.733Z,2.42
2023-04-12T21:41:29.760Z,1.17
2023-04-12T21:43:57.003Z,1.70
2023-04-12T21:46:28.324Z,2.17
2023-04-12T21:48:55.758Z,2.28
2023-04-12T21:51:24.978Z,2.05
2023-04-12T21:53:51.914Z,1.85
2023-04-12T21:56:18.923Z,1.85
2023-04-12T21:58:45.672Z,1.65
2023-04-12T22:01:12.839Z,1.52
2023-04-12T22:03:39.767Z,3.13
2023-04-12T22:06:07.136Z,1.15
2023-04-12T22:08:34.255Z,2.35
2023-04-12T22:11:01.671Z,0.93
2023-04-12T22:13:28.763Z,2.08
2023-04-12T22:15:55.608Z,1.05
2023-04-12T22:18:23.471Z,0.45
2023-04-12T22:20:51.029Z,1.40
2023-04-12T22:23:18.266Z,2.13
2023-04-12T22:25:45.830Z,0.95
2023-04-12T22:28:12.704Z,2.20
2023-04-12T22:30:39.740Z,0.45
2023-04-12T22:33:08.507Z,1.35
2023-04-12T22:35:36.496Z,1.33
2023-04-12T22:38:04.914Z,2.42
2023-04-12T22:40:31.875Z,1.75
2023-04-12T22:42:58.911Z,1.58
2023-04-12T22:45:25.768Z,2.47
2023-04-12T22:47:53.114Z,2.08
2023-04-12T22:50:20.186Z,1.48
2023-04-12T22:52:49.983Z,2.67
2023-04-12T22:55:20.511Z,2.35
2023-04-12T22:57:47.526Z,3.85
2023-04-12T23:00:16.948Z,2.25
2023-04-12T23:02:46.194Z,3.22
2023-04-12T23:05:14.013Z,1.70
2023-04-12T23:07:41.529Z,1.85
2023-04-12T23:10:09.083Z,2.35
2023-04-12T23:12:37.414Z,2.50
2023-04-12T23:15:05.729Z,2.20
2023-04-12T23:17:32.973Z,1.92
2023-04-12T23:20:02.098Z,3.15
2023-04-12T23:22:55.283Z,3.33
2023-04-12T23:25:37.932Z,2.75
2023-04-12T23:28:07.928Z,2.40
2023-04-12T23:30:34.741Z,3.47
2023-04-12T23:33:02.133Z,2.17
2023-04-12T23:35:29.055Z,2.38
2023-04-12T23:37:56.239Z,1.88
2023-04-12T23:40:23.126Z,3.20
2023-04-12T23:42:50.931Z,2.42
2023-04-12T23:45:17.975Z,4.15
2023-04-12T23:47:44.770Z,3.80
2023-04-12T23:50:11.778Z,2.45
2023-04-12T23:52:38.487Z,2.65
2023-04-12T23:55:05.806Z,2.97
2023-04-12T23:57:32.602Z,3.53
2023-04-12T23:59:59.478Z,1.90
